createdAt,value
2022-12-31T00:00:10.084Z,994.98
2022-12-31T00:01:11.099Z,995.02
2022-12-31T00:02:10.459Z,994.95
2022-12-31T00:03:10.713Z,995.01
2022-12-31T00:04:10.688Z,994.90
2022-12-31T00:05:10.850Z,994.93
2022-12-31T00:06:11.767Z,994.94
2022-12-31T00:07:11.160Z,994.93
2022-12-31T00:08:11.778Z,994.95
2022-12-31T00:09:12.089Z,994.92
2022-12-31T00:10:11.578Z,995.02
2022-12-31T00:11:11.758Z,994.95
2022-12-31T00:12:12.600Z,994.94
2022-12-31T00:13:12.133Z,994.90
2022-12-31T00:14:12.305Z,994.97
2022-12-31T00:15:13.271Z,994.87
2022-12-31T00:16:12.733Z,994.94
2022-12-31T00:17:13.741Z,994.92
2022-12-31T00:18:13.072Z,994.94
2022-12-31T00:19:13.785Z,994.98
2022-12-31T00:20:13.439Z,994.99
2022-12-31T00:21:13.623Z,994.97
2022-12-31T00:22:13.780Z,995.00
2022-12-31T00:23:13.941Z,995.04
2022-12-31T00:24:14.080Z,995.08
2022-12-31T00:25:15.231Z,994.99
2022-12-31T00:26:15.094Z,994.94
2022-12-31T00:27:15.233Z,994.92
2022-12-31T00:28:14.769Z,994.95
2022-12-31T00:29:15.933Z,994.92
2022-12-31T00:30:15.767Z,994.85
2022-12-31T00:31:15.302Z,995.00
2022-12-31T00:32:16.235Z,994.93
2022-12-31T00:33:16.233Z,994.91
2022-12-31T00:34:15.769Z,994.97
2022-12-31T00:35:15.934Z,994.89
2022-12-31T00:36:16.753Z,994.99
2022-12-31T00:37:16.276Z,995.01
2022-12-31T00:38:16.433Z,994.87
2022-12-31T00:39:17.733Z,994.91
2022-12-31T00:40:16.720Z,994.93
2022-12-31T00:41:17.773Z,994.86
2022-12-31T00:42:17.888Z,994.84
2022-12-31T00:43:18.140Z,994.87
2022-12-31T00:44:38.296Z,994.80
2022-12-31T00:45:17.396Z,994.83
2022-12-31T00:46:17.586Z,994.87
2022-12-31T00:47:18.269Z,994.87
2022-12-31T00:48:17.898Z,994.83
2022-12-31T00:49:18.097Z,994.84
2022-12-31T00:50:40.163Z,994.84
2022-12-31T00:51:18.483Z,994.88
2022-12-31T00:52:20.738Z,994.81
2022-12-31T00:53:18.959Z,994.77
2022-12-31T00:54:19.799Z,994.82
2022-12-31T00:55:20.108Z,994.86
2022-12-31T00:56:19.467Z,994.72
2022-12-31T00:57:20.612Z,994.81
2022-12-31T00:58:19.743Z,994.78
2022-12-31T00:59:19.903Z,994.82
2022-12-31T01:00:20.066Z,994.82
2022-12-31T01:01:20.407Z,994.93
2022-12-31T01:02:20.536Z,994.93
2022-12-31T01:03:22.287Z,994.94
2022-12-31T01:04:20.812Z,994.89
2022-12-31T01:05:20.982Z,994.98
2022-12-31T01:06:21.140Z,994.93
2022-12-31T01:07:21.784Z,994.99
2022-12-31T01:08:21.423Z,994.90
2022-12-31T01:09:21.739Z,994.94
2022-12-31T01:10:22.290Z,994.90
2022-12-31T01:11:21.938Z,994.90
2022-12-31T01:12:22.093Z,994.84
2022-12-31T01:13:22.242Z,994.86
2022-12-31T01:14:22.417Z,994.80
2022-12-31T01:15:23.835Z,994.83
2022-12-31T01:16:23.285Z,994.77
2022-12-31T01:17:22.895Z,994.77
2022-12-31T01:18:23.027Z,994.80
2022-12-31T01:19:23.187Z,994.73
2022-12-31T01:20:24.739Z,994.74
2022-12-31T01:21:23.477Z,994.79
2022-12-31T01:22:24.252Z,994.79
2022-12-31T01:23:23.874Z,994.76
2022-12-31T01:24:24.047Z,994.72
2022-12-31T01:25:24.209Z,994.69
2022-12-31T01:26:24.381Z,994.76
2022-12-31T01:27:24.587Z,994.72
2022-12-31T01:28:24.744Z,994.72
2022-12-31T01:29:24.917Z,994.78
2022-12-31T01:30:26.615Z,994.61
2022-12-31T01:31:25.331Z,994.69
2022-12-31T01:32:25.385Z,994.74
2022-12-31T01:33:25.541Z,994.70
2022-12-31T01:34:25.758Z,994.62
2022-12-31T01:35:26.792Z,994.71
2022-12-31T01:36:26.744Z,994.70
2022-12-31T01:37:26.793Z,994.61
2022-12-31T01:38:26.321Z,994.62
2022-12-31T01:39:26.473Z,994.66
2022-12-31T01:40:27.289Z,994.60
2022-12-31T01:41:26.825Z,994.54
2022-12-31T01:42:27.003Z,994.60
2022-12-31T01:43:27.171Z,994.42
2022-12-31T01:44:28.750Z,994.49
2022-12-31T01:45:27.504Z,994.47
2022-12-31T01:46:27.691Z,994.54
2022-12-31T01:47:28.304Z,994.41
2022-12-31T01:48:28.808Z,994.43
2022-12-31T01:49:28.204Z,994.39
2022-12-31T01:50:28.356Z,994.38
2022-12-31T01:51:30.118Z,994.47
2022-12-31T01:52:28.741Z,994.55
2022-12-31T01:53:31.248Z,994.40
2022-12-31T01:54:29.092Z,994.45
2022-12-31T01:55:29.257Z,994.43
2022-12-31T01:56:29.408Z,994.48
2022-12-31T01:57:30.299Z,994.41
2022-12-31T01:58:29.819Z,994.46
2022-12-31T01:59:30.000Z,994.28
2022-12-31T02:00:30.791Z,994.35
2022-12-31T02:01:30.613Z,994.41
2022-12-31T02:02:30.883Z,994.37
2022-12-31T02:03:30.773Z,994.41
2022-12-31T02:04:31.793Z,994.40
2022-12-31T02:05:32.251Z,994.43
2022-12-31T02:06:31.277Z,994.46
2022-12-31T02:07:31.430Z,994.40
2022-12-31T02:08:36.969Z,994.35
2022-12-31T02:09:32.772Z,994.33
2022-12-31T02:10:32.636Z,994.36
2022-12-31T02:11:32.307Z,994.34
2022-12-31T02:12:32.335Z,994.42
2022-12-31T02:13:33.296Z,994.29
2022-12-31T02:14:32.709Z,994.38
2022-12-31T02:15:33.805Z,994.38
2022-12-31T02:16:33.819Z,994.35
2022-12-31T02:17:33.224Z,994.43
2022-12-31T02:18:34.260Z,994.25
2022-12-31T02:19:34.524Z,994.27
2022-12-31T02:20:33.655Z,994.40
2022-12-31T02:21:34.757Z,994.33
2022-12-31T02:22:34.089Z,994.23
2022-12-31T02:23:34.283Z,994.25
2022-12-31T02:24:34.462Z,994.37
2022-12-31T02:25:34.630Z,994.37
2022-12-31T02:26:34.857Z,994.35
2022-12-31T02:27:35.767Z,994.37
2022-12-31T02:28:35.216Z,994.34
2022-12-31T02:29:36.265Z,994.19
2022-12-31T02:30:36.269Z,994.38
2022-12-31T02:31:35.733Z,994.50
2022-12-31T02:32:35.817Z,994.35
2022-12-31T02:33:36.017Z,994.39
2022-12-31T02:34:37.136Z,994.36
2022-12-31T02:35:37.308Z,994.30
2022-12-31T02:36:37.302Z,994.48
2022-12-31T02:37:37.304Z,994.34
2022-12-31T02:38:36.843Z,994.48
2022-12-31T02:39:37.023Z,994.47
2022-12-31T02:40:38.807Z,994.45
2022-12-31T02:41:37.821Z,994.39
2022-12-31T02:42:38.303Z,994.46
2022-12-31T02:43:37.835Z,994.19
2022-12-31T02:44:39.630Z,994.29
2022-12-31T02:45:38.157Z,994.34
2022-12-31T02:46:38.357Z,994.24
2022-12-31T02:47:38.557Z,994.23
2022-12-31T02:48:39.632Z,994.29
2022-12-31T02:49:38.945Z,994.25
2022-12-31T02:50:40.274Z,994.08
2022-12-31T02:51:39.334Z,994.16
2022-12-31T02:52:40.320Z,994.20
2022-12-31T02:53:39.727Z,994.00
2022-12-31T02:54:40.775Z,994.10
2022-12-31T02:55:40.058Z,993.98
2022-12-31T02:56:40.242Z,993.98
2022-12-31T02:57:40.416Z,994.07
2022-12-31T02:58:41.306Z,994.00
2022-12-31T02:59:41.343Z,993.97
2022-12-31T03:00:41.052Z,994.05
2022-12-31T03:01:41.343Z,994.06
2022-12-31T03:02:41.449Z,994.12
2022-12-31T03:03:41.612Z,994.14
2022-12-31T03:04:42.314Z,994.10
2022-12-31T03:05:42.819Z,994.05
2022-12-31T03:06:42.075Z,994.03
2022-12-31T03:07:42.266Z,994.12
2022-12-31T03:08:42.431Z,994.11
2022-12-31T03:09:42.595Z,994.03
2022-12-31T03:10:43.316Z,994.07
2022-12-31T03:11:42.959Z,994.13
2022-12-31T03:12:43.137Z,994.11
2022-12-31T03:13:43.293Z,994.04
2022-12-31T03:14:43.500Z,994.08
2022-12-31T03:15:44.313Z,994.14
2022-12-31T03:16:44.777Z,994.05
2022-12-31T03:17:44.045Z,994.16
2022-12-31T03:18:44.225Z,994.07
2022-12-31T03:19:45.279Z,994.04
2022-12-31T03:20:44.536Z,994.14
2022-12-31T03:21:44.682Z,994.09
2022-12-31T03:22:44.821Z,994.05
2022-12-31T03:23:44.984Z,994.11
2022-12-31T03:24:46.285Z,994.12
2022-12-31T03:25:45.303Z,994.12
2022-12-31T03:26:45.488Z,993.99
2022-12-31T03:27:45.660Z,994.08
2022-12-31T03:28:45.836Z,994.20
2022-12-31T03:29:46.009Z,994.18
2022-12-31T03:30:46.182Z,994.15
2022-12-31T03:31:46.859Z,994.25
2022-12-31T03:32:48.298Z,994.19
2022-12-31T03:33:46.651Z,994.21
2022-12-31T03:34:46.816Z,994.26
2022-12-31T03:35:46.968Z,994.36
2022-12-31T03:36:47.120Z,994.35
2022-12-31T03:37:48.790Z,994.26
2022-12-31T03:38:51.206Z,994.19
2022-12-31T03:39:49.588Z,994.34
2022-12-31T03:40:48.326Z,994.26
2022-12-31T03:41:48.332Z,994.27
2022-12-31T03:42:48.212Z,994.33
2022-12-31T03:43:48.342Z,994.30
2022-12-31T03:44:48.485Z,994.28
2022-12-31T03:45:48.618Z,994.23
2022-12-31T03:46:48.802Z,994.18
2022-12-31T03:47:50.790Z,994.26
2022-12-31T03:48:49.824Z,994.23
2022-12-31T03:49:49.320Z,994.27
2022-12-31T03:50:49.496Z,994.40
2022-12-31T03:51:49.638Z,994.39
2022-12-31T03:52:51.838Z,994.38
2022-12-31T03:53:49.934Z,994.49
2022-12-31T03:54:51.796Z,994.55
2022-12-31T03:55:50.299Z,994.49
2022-12-31T03:56:55.316Z,994.45
2022-12-31T03:57:52.677Z,994.51
2022-12-31T03:58:51.793Z,994.39
2022-12-31T03:59:51.051Z,994.34
2022-12-31T04:00:52.224Z,994.44
2022-12-31T04:01:51.490Z,994.56
2022-12-31T04:02:52.360Z,994.43
2022-12-31T04:03:51.796Z,994.42
2022-12-31T04:04:51.987Z,994.51
2022-12-31T04:05:52.155Z,994.46
2022-12-31T04:06:53.294Z,994.55
2022-12-31T04:07:53.296Z,994.59
2022-12-31T04:08:52.723Z,994.57
2022-12-31T04:09:53.890Z,994.59
2022-12-31T04:10:53.041Z,994.68
2022-12-31T04:11:53.205Z,994.63
2022-12-31T04:12:54.345Z,994.77
2022-12-31T04:13:53.846Z,994.68
2022-12-31T04:14:53.796Z,994.51
2022-12-31T04:15:55.793Z,994.44
2022-12-31T04:16:54.833Z,994.48
2022-12-31T04:17:54.364Z,994.57
2022-12-31T04:18:54.541Z,994.59
2022-12-31T04:19:54.850Z,994.53
2022-12-31T04:20:54.929Z,994.48
2022-12-31T04:21:55.166Z,994.56
2022-12-31T04:22:55.344Z,994.55
2022-12-31T04:23:56.296Z,994.48
2022-12-31T04:24:55.688Z,994.58
2022-12-31T04:25:56.658Z,994.56
2022-12-31T04:26:59.644Z,994.52
2022-12-31T04:27:57.834Z,994.54
2022-12-31T04:28:56.343Z,994.57
2022-12-31T04:29:56.867Z,994.51
2022-12-31T04:30:56.652Z,994.50
2022-12-31T04:31:56.910Z,994.53
2022-12-31T04:32:57.840Z,994.52
2022-12-31T04:33:57.109Z,994.49
2022-12-31T04:34:57.734Z,994.49
2022-12-31T04:35:57.852Z,994.48
2022-12-31T04:36:58.348Z,994.42
2022-12-31T04:37:58.836Z,994.48
2022-12-31T04:38:58.097Z,994.43
2022-12-31T04:40:05.169Z,994.54
2022-12-31T04:41:00.505Z,994.52
2022-12-31T04:41:59.310Z,994.58
2022-12-31T04:42:58.804Z,994.47
2022-12-31T04:43:59.852Z,994.51
2022-12-31T04:44:59.842Z,994.39
2022-12-31T04:45:59.890Z,994.43
2022-12-31T04:47:00.365Z,994.41
2022-12-31T04:48:00.347Z,994.52
2022-12-31T04:48:59.885Z,994.52
2022-12-31T04:50:00.048Z,994.53
2022-12-31T04:51:00.220Z,994.47
2022-12-31T04:52:00.419Z,994.39
2022-12-31T04:53:00.563Z,994.47
2022-12-31T04:54:00.745Z,994.46
2022-12-31T04:55:01.872Z,994.46
2022-12-31T04:56:02.803Z,994.55
2022-12-31T04:57:01.301Z,994.62
2022-12-31T04:58:02.745Z,994.52
2022-12-31T04:59:01.626Z,994.57
2022-12-31T05:00:03.823Z,994.73
2022-12-31T05:01:02.993Z,994.63
2022-12-31T05:02:03.185Z,994.55
2022-12-31T05:03:03.210Z,994.69
2022-12-31T05:04:02.535Z,994.76
2022-12-31T05:05:03.305Z,994.78
2022-12-31T05:06:03.815Z,994.67
2022-12-31T05:07:03.066Z,994.61
2022-12-31T05:08:03.229Z,994.72
2022-12-31T05:09:03.386Z,994.69
2022-12-31T05:10:04.813Z,994.72
2022-12-31T05:11:03.683Z,994.72
2022-12-31T05:12:03.818Z,994.85
2022-12-31T05:13:03.966Z,994.76
2022-12-31T05:14:04.124Z,994.61
2022-12-31T05:15:04.810Z,994.89
2022-12-31T05:16:04.429Z,994.78
2022-12-31T05:17:05.392Z,994.86
2022-12-31T05:18:04.689Z,994.74
2022-12-31T05:19:04.850Z,994.88
2022-12-31T05:20:05.810Z,994.73
2022-12-31T05:21:05.183Z,994.80
2022-12-31T05:22:05.327Z,994.76
2022-12-31T05:23:06.309Z,994.77
2022-12-31T05:24:05.921Z,994.71
2022-12-31T05:25:05.892Z,994.72
2022-12-31T05:26:06.813Z,994.90
2022-12-31T05:27:06.849Z,994.77
2022-12-31T05:28:06.367Z,994.70
2022-12-31T05:29:07.354Z,994.86
2022-12-31T05:30:06.741Z,994.65
2022-12-31T05:31:07.896Z,994.76
2022-12-31T05:32:07.815Z,994.62
2022-12-31T05:33:07.215Z,994.64
2022-12-31T05:34:07.391Z,994.69
2022-12-31T05:35:07.544Z,994.73
2022-12-31T05:36:07.739Z,994.92
2022-12-31T05:37:08.814Z,994.75
2022-12-31T05:38:08.172Z,994.89
2022-12-31T05:39:09.209Z,994.50
2022-12-31T05:40:08.334Z,994.63
2022-12-31T05:41:09.010Z,994.53
2022-12-31T05:42:08.766Z,994.63
2022-12-31T05:43:08.974Z,994.54
2022-12-31T05:44:09.857Z,994.70
2022-12-31T05:45:10.396Z,994.69
2022-12-31T05:46:10.329Z,994.82
2022-12-31T05:47:09.706Z,994.69
2022-12-31T05:48:11.816Z,994.72
2022-12-31T05:49:10.823Z,994.59
2022-12-31T05:50:10.230Z,994.58
2022-12-31T05:51:11.324Z,994.61
2022-12-31T05:52:10.605Z,994.70
2022-12-31T05:53:10.801Z,994.54
2022-12-31T05:54:10.943Z,994.52
2022-12-31T05:55:12.823Z,994.48
2022-12-31T05:56:11.856Z,994.76
2022-12-31T05:57:11.499Z,994.58
2022-12-31T05:58:11.873Z,994.67
2022-12-31T05:59:11.801Z,994.83
2022-12-31T06:00:13.844Z,994.58
2022-12-31T06:01:12.388Z,994.62
2022-12-31T06:02:13.248Z,994.55
2022-12-31T06:03:13.524Z,994.52
2022-12-31T06:04:12.747Z,994.65
2022-12-31T06:05:13.864Z,994.58
2022-12-31T06:06:13.135Z,994.68
2022-12-31T06:07:13.318Z,994.62
2022-12-31T06:08:14.321Z,994.70
2022-12-31T06:09:15.332Z,994.70
2022-12-31T06:10:13.851Z,994.76
2022-12-31T06:11:14.867Z,994.82
2022-12-31T06:12:14.143Z,994.81
2022-12-31T06:13:14.379Z,994.86
2022-12-31T06:14:16.324Z,994.80
2022-12-31T06:15:14.877Z,994.79
2022-12-31T06:16:14.883Z,994.81
2022-12-31T06:17:15.985Z,994.91
2022-12-31T06:18:15.142Z,994.82
2022-12-31T06:19:15.271Z,994.75
2022-12-31T06:20:15.481Z,994.85
2022-12-31T06:21:15.682Z,994.89
2022-12-31T06:22:16.828Z,994.86
2022-12-31T06:23:16.824Z,994.84
2022-12-31T06:24:16.333Z,994.79
2022-12-31T06:25:16.546Z,994.82
2022-12-31T06:26:18.005Z,994.92
2022-12-31T06:27:17.892Z,994.87
2022-12-31T06:28:20.590Z,994.96
2022-12-31T06:29:18.250Z,994.95
2022-12-31T06:30:18.327Z,995.06
2022-12-31T06:31:17.613Z,995.03
2022-12-31T06:32:17.762Z,994.74
2022-12-31T06:33:17.952Z,994.89
2022-12-31T06:34:18.167Z,994.89
2022-12-31T06:35:18.878Z,994.76
2022-12-31T06:36:18.515Z,995.07
2022-12-31T06:37:18.668Z,995.03
2022-12-31T06:38:18.865Z,995.06
2022-12-31T06:39:20.834Z,994.97
2022-12-31T06:40:19.212Z,995.07
2022-12-31T06:41:20.347Z,995.13
2022-12-31T06:42:20.380Z,995.00
2022-12-31T06:43:20.829Z,994.92
2022-12-31T06:44:20.849Z,995.06
2022-12-31T06:45:20.128Z,995.10
2022-12-31T06:46:20.372Z,995.03
2022-12-31T06:47:20.451Z,995.00
2022-12-31T06:48:20.658Z,994.98
2022-12-31T06:49:20.818Z,994.99
2022-12-31T06:50:20.987Z,994.88
2022-12-31T06:51:21.166Z,995.04
2022-12-31T06:52:22.848Z,995.25
2022-12-31T06:53:22.342Z,995.23
2022-12-31T06:54:23.358Z,995.00
2022-12-31T06:55:21.751Z,995.08
2022-12-31T06:56:29.392Z,995.07
2022-12-31T06:57:25.840Z,995.00
2022-12-31T06:58:22.343Z,995.06
2022-12-31T06:59:22.537Z,995.21
2022-12-31T07:00:22.728Z,994.82
2022-12-31T07:01:23.941Z,995.05
2022-12-31T07:02:23.207Z,994.84
2022-12-31T07:03:23.379Z,994.80
2022-12-31T07:04:24.382Z,995.00
2022-12-31T07:05:24.338Z,994.92
2022-12-31T07:06:23.981Z,994.91
2022-12-31T07:07:24.192Z,994.98
2022-12-31T07:08:25.723Z,994.98
2022-12-31T07:09:24.369Z,994.94
2022-12-31T07:10:29.481Z,994.99
2022-12-31T07:11:26.385Z,995.05
2022-12-31T07:12:24.809Z,995.11
2022-12-31T07:13:24.989Z,995.11
2022-12-31T07:14:25.907Z,994.97
2022-12-31T07:15:25.414Z,994.99
2022-12-31T07:16:25.548Z,995.08
2022-12-31T07:17:25.631Z,995.20
2022-12-31T07:18:25.823Z,995.18
2022-12-31T07:19:25.990Z,995.23
2022-12-31T07:20:26.204Z,995.14
2022-12-31T07:21:26.403Z,995.31
2022-12-31T07:22:26.562Z,995.22
2022-12-31T07:23:26.725Z,995.31
2022-12-31T07:24:28.361Z,995.29
2022-12-31T07:25:27.846Z,995.31
2022-12-31T07:26:28.344Z,995.25
2022-12-31T07:27:27.481Z,995.34
2022-12-31T07:28:28.385Z,995.21
2022-12-31T07:29:27.806Z,995.29
2022-12-31T07:30:28.035Z,995.32
2022-12-31T07:31:28.158Z,995.32
2022-12-31T07:32:30.353Z,995.42
2022-12-31T07:33:28.576Z,995.32
2022-12-31T07:34:28.763Z,995.14
2022-12-31T07:35:34.791Z,995.32
2022-12-31T07:36:31.114Z,995.23
2022-12-31T07:37:29.846Z,995.27
2022-12-31T07:38:29.848Z,995.28
2022-12-31T07:39:30.415Z,995.24
2022-12-31T07:40:29.693Z,995.29
2022-12-31T07:41:29.893Z,995.16
2022-12-31T07:42:30.719Z,995.47
2022-12-31T07:43:30.282Z,995.32
2022-12-31T07:44:30.472Z,995.43
2022-12-31T07:45:30.667Z,995.35
2022-12-31T07:46:30.897Z,995.33
2022-12-31T07:47:31.005Z,995.46
2022-12-31T07:48:31.863Z,995.38
2022-12-31T07:49:31.900Z,995.43
2022-12-31T07:50:31.546Z,995.22
2022-12-31T07:51:32.358Z,995.47
2022-12-31T07:52:32.399Z,995.58
2022-12-31T07:53:32.069Z,995.46
2022-12-31T07:54:32.211Z,995.50
2022-12-31T07:55:33.854Z,995.40
2022-12-31T07:56:33.853Z,995.41
2022-12-31T07:57:32.847Z,995.45
2022-12-31T07:58:33.419Z,995.42
2022-12-31T07:59:34.360Z,995.44
2022-12-31T08:00:34.396Z,995.41
2022-12-31T08:01:33.686Z,995.66
2022-12-31T08:02:33.971Z,995.52
2022-12-31T08:03:33.980Z,995.43
2022-12-31T08:04:34.167Z,995.44
2022-12-31T08:05:34.351Z,995.56
2022-12-31T08:06:34.534Z,995.57
2022-12-31T08:07:35.397Z,995.49
2022-12-31T08:08:34.947Z,995.53
2022-12-31T08:09:35.125Z,995.49
2022-12-31T08:10:35.280Z,995.58
2022-12-31T08:11:35.443Z,995.55
2022-12-31T08:12:35.622Z,995.68
2022-12-31T08:13:35.811Z,995.79
2022-12-31T08:14:36.870Z,995.80
2022-12-31T08:15:36.912Z,995.71
2022-12-31T08:16:36.941Z,995.57
2022-12-31T08:17:37.400Z,995.72
2022-12-31T08:18:36.919Z,995.68
2022-12-31T08:19:36.808Z,995.59
2022-12-31T08:20:36.937Z,995.67
2022-12-31T08:21:37.421Z,995.70
2022-12-31T08:22:37.338Z,995.66
2022-12-31T08:23:37.523Z,995.60
2022-12-31T08:24:37.699Z,995.73
2022-12-31T08:25:38.427Z,995.74
2022-12-31T08:26:39.730Z,995.69
2022-12-31T08:27:38.218Z,995.73
2022-12-31T08:28:39.866Z,995.72
2022-12-31T08:29:38.617Z,995.69
2022-12-31T08:30:39.418Z,995.76
2022-12-31T08:31:38.970Z,995.67
2022-12-31T08:32:39.161Z,995.80
2022-12-31T08:33:39.309Z,995.73
2022-12-31T08:34:40.417Z,995.72
2022-12-31T08:35:39.921Z,995.72
2022-12-31T08:36:39.868Z,995.68
2022-12-31T08:37:40.915Z,995.74
2022-12-31T08:38:40.328Z,995.69
2022-12-31T08:39:41.234Z,995.86
2022-12-31T08:40:40.652Z,995.83
2022-12-31T08:41:43.075Z,995.85
2022-12-31T08:42:43.366Z,995.77
2022-12-31T08:43:41.925Z,995.80
2022-12-31T08:44:41.919Z,995.90
2022-12-31T08:45:41.671Z,995.80
2022-12-31T08:46:42.411Z,995.92
2022-12-31T08:47:41.999Z,995.88
2022-12-31T08:48:42.208Z,995.85
2022-12-31T08:49:42.391Z,995.94
2022-12-31T08:50:42.565Z,995.86
2022-12-31T08:51:43.417Z,995.91
2022-12-31T08:52:42.954Z,995.83
2022-12-31T08:53:43.155Z,995.91
2022-12-31T08:54:43.345Z,995.91
2022-12-31T08:55:43.538Z,996.01
2022-12-31T08:56:48.809Z,995.96
2022-12-31T08:57:45.910Z,996.05
2022-12-31T08:58:44.878Z,995.96
2022-12-31T08:59:44.198Z,996.08
2022-12-31T09:00:44.961Z,996.22
2022-12-31T09:01:45.351Z,996.20
2022-12-31T09:02:48.229Z,996.27
2022-12-31T09:03:46.901Z,996.21
2022-12-31T09:04:45.223Z,996.05
2022-12-31T09:05:46.057Z,996.18
2022-12-31T09:06:47.413Z,996.21
2022-12-31T09:07:46.384Z,996.10
2022-12-31T09:08:46.889Z,996.05
2022-12-31T09:09:46.316Z,996.06
2022-12-31T09:10:46.516Z,995.94
2022-12-31T09:11:46.704Z,996.00
2022-12-31T09:12:47.452Z,996.00
2022-12-31T09:13:47.241Z,995.56
2022-12-31T09:14:48.290Z,995.94
2022-12-31T09:15:48.384Z,995.86
2022-12-31T09:16:47.549Z,996.01
2022-12-31T09:17:48.430Z,996.05
2022-12-31T09:18:47.930Z,996.06
2022-12-31T09:19:48.113Z,996.10
2022-12-31T09:20:48.281Z,996.16
2022-12-31T09:21:48.463Z,996.25
2022-12-31T09:22:48.601Z,996.21
2022-12-31T09:23:50.385Z,996.18
2022-12-31T09:24:49.008Z,996.20
2022-12-31T09:25:49.182Z,996.26
2022-12-31T09:26:49.357Z,996.22
2022-12-31T09:27:49.532Z,996.31
2022-12-31T09:28:50.389Z,996.38
2022-12-31T09:29:50.424Z,996.37
2022-12-31T09:30:50.882Z,996.34
2022-12-31T09:31:50.911Z,996.33
2022-12-31T09:32:55.344Z,996.41
2022-12-31T09:33:52.658Z,996.33
2022-12-31T09:34:51.430Z,996.41
2022-12-31T09:35:52.397Z,996.44
2022-12-31T09:36:51.155Z,996.66
2022-12-31T09:37:51.347Z,996.48
2022-12-31T09:38:53.404Z,996.62
2022-12-31T09:39:51.672Z,996.72
2022-12-31T09:40:52.431Z,996.69
2022-12-31T09:41:52.086Z,996.65
2022-12-31T09:42:52.276Z,996.60
2022-12-31T09:43:57.355Z,996.71
2022-12-31T09:44:54.584Z,996.74
2022-12-31T09:45:52.979Z,996.70
2022-12-31T09:46:52.883Z,996.69
2022-12-31T09:47:53.898Z,996.69
2022-12-31T09:48:53.448Z,996.71
2022-12-31T09:49:54.435Z,996.74
2022-12-31T09:50:53.706Z,996.83
2022-12-31T09:51:53.903Z,996.90
2022-12-31T09:52:55.908Z,997.02
2022-12-31T09:53:54.442Z,997.01
2022-12-31T09:54:55.271Z,996.98
2022-12-31T09:55:55.431Z,996.99
2022-12-31T09:56:59.023Z,997.05
2022-12-31T09:57:56.049Z,997.13
2022-12-31T09:58:55.899Z,997.10
2022-12-31T09:59:56.905Z,997.23
2022-12-31T10:00:56.598Z,997.18
2022-12-31T10:01:55.900Z,997.28
2022-12-31T10:02:56.580Z,997.31
2022-12-31T10:03:56.906Z,997.34
2022-12-31T10:04:57.895Z,997.31
2022-12-31T10:05:58.402Z,997.32
2022-12-31T10:06:57.397Z,997.26
2022-12-31T10:07:56.959Z,997.35
2022-12-31T10:08:57.092Z,997.39
2022-12-31T10:09:57.256Z,997.27
2022-12-31T10:10:57.936Z,997.36
2022-12-31T10:11:59.403Z,997.26
2022-12-31T10:12:57.785Z,997.32
2022-12-31T10:13:57.937Z,997.35
2022-12-31T10:14:58.099Z,997.28
2022-12-31T10:15:58.264Z,997.32
2022-12-31T10:16:58.618Z,997.34
2022-12-31T10:17:58.678Z,997.30
2022-12-31T10:18:58.837Z,997.18
2022-12-31T10:19:59.471Z,997.15
2022-12-31T10:20:59.231Z,997.27
2022-12-31T10:21:59.380Z,997.16
2022-12-31T10:22:59.541Z,997.17
2022-12-31T10:24:01.444Z,997.14
2022-12-31T10:25:00.426Z,997.13
2022-12-31T10:26:00.892Z,997.12
2022-12-31T10:27:01.152Z,997.14
2022-12-31T10:28:00.950Z,997.15
2022-12-31T10:29:00.475Z,997.06
2022-12-31T10:30:00.671Z,997.11
2022-12-31T10:31:02.012Z,996.98
2022-12-31T10:32:01.921Z,996.85
2022-12-31T10:33:01.181Z,997.07
2022-12-31T10:34:01.363Z,997.02
2022-12-31T10:35:01.578Z,996.95
2022-12-31T10:36:01.771Z,996.99
2022-12-31T10:37:01.950Z,996.94
2022-12-31T10:38:02.908Z,997.07
2022-12-31T10:39:05.062Z,996.94
2022-12-31T10:40:03.481Z,996.91
2022-12-31T10:41:02.639Z,997.07
2022-12-31T10:42:03.407Z,996.88
2022-12-31T10:43:05.270Z,996.94
2022-12-31T10:44:03.109Z,997.08
2022-12-31T10:45:03.285Z,996.95
2022-12-31T10:46:03.523Z,996.83
2022-12-31T10:47:04.418Z,997.00
2022-12-31T10:48:04.413Z,996.99
2022-12-31T10:49:03.948Z,996.87
2022-12-31T10:50:04.125Z,996.91
2022-12-31T10:51:04.333Z,996.84
2022-12-31T10:52:04.517Z,996.91
2022-12-31T10:53:04.690Z,996.87
2022-12-31T10:54:05.409Z,996.76
2022-12-31T10:55:05.949Z,996.78
2022-12-31T10:56:05.468Z,996.78
2022-12-31T10:57:06.411Z,996.74
2022-12-31T10:58:07.417Z,996.85
2022-12-31T10:59:06.420Z,996.60
2022-12-31T11:00:06.452Z,996.70
2022-12-31T11:01:06.182Z,996.68
2022-12-31T11:02:07.185Z,996.67
2022-12-31T11:03:06.385Z,996.71
2022-12-31T11:04:07.023Z,996.74
2022-12-31T11:05:07.349Z,996.82
2022-12-31T11:06:08.411Z,996.70
2022-12-31T11:07:07.065Z,996.74
2022-12-31T11:08:07.233Z,996.69
2022-12-31T11:09:07.388Z,996.75
2022-12-31T11:10:07.572Z,996.73
2022-12-31T11:11:08.278Z,996.62
2022-12-31T11:12:07.930Z,996.56
2022-12-31T11:13:08.094Z,996.76
2022-12-31T11:14:08.359Z,996.60
2022-12-31T11:15:08.440Z,996.61
2022-12-31T11:16:08.669Z,996.65
2022-12-31T11:17:10.914Z,996.62
2022-12-31T11:18:09.413Z,996.71
2022-12-31T11:19:09.067Z,996.61
2022-12-31T11:20:09.240Z,996.66
2022-12-31T11:21:09.913Z,996.65
2022-12-31T11:22:10.460Z,996.71
2022-12-31T11:23:09.724Z,996.68
2022-12-31T11:24:09.883Z,996.63
2022-12-31T11:25:10.059Z,996.70
2022-12-31T11:26:10.189Z,996.72
2022-12-31T11:27:10.359Z,996.69
2022-12-31T11:28:10.599Z,996.64
2022-12-31T11:29:11.651Z,996.61
2022-12-31T11:30:11.486Z,996.78
2022-12-31T11:31:11.086Z,996.51
2022-12-31T11:32:11.139Z,996.46
2022-12-31T11:33:11.305Z,996.62
2022-12-31T11:34:11.493Z,996.44
2022-12-31T11:35:11.629Z,996.51
2022-12-31T11:36:11.776Z,996.43
2022-12-31T11:37:11.986Z,996.46
2022-12-31T11:38:12.146Z,996.44
2022-12-31T11:39:12.967Z,996.48
2022-12-31T11:40:12.470Z,996.35
2022-12-31T11:41:12.645Z,996.35
2022-12-31T11:42:13.463Z,996.31
2022-12-31T11:43:12.997Z,996.29
2022-12-31T11:44:13.964Z,996.36
2022-12-31T11:45:13.966Z,996.31
2022-12-31T11:46:13.688Z,996.32
2022-12-31T11:47:13.841Z,996.38
2022-12-31T11:48:30.267Z,996.43
2022-12-31T11:49:16.963Z,996.43
2022-12-31T11:50:14.381Z,996.44
2022-12-31T11:51:14.443Z,996.42
2022-12-31T11:52:19.549Z,996.38
2022-12-31T11:53:16.759Z,996.48
2022-12-31T11:54:14.873Z,996.42
2022-12-31T11:55:15.070Z,996.36
2022-12-31T11:56:15.230Z,996.39
2022-12-31T11:57:15.478Z,996.40
2022-12-31T11:58:15.619Z,996.41
2022-12-31T11:59:19.319Z,996.35
2022-12-31T12:00:16.949Z,996.39
2022-12-31T12:01:16.981Z,996.30
2022-12-31T12:02:16.280Z,996.30
2022-12-31T12:03:16.465Z,996.51
2022-12-31T12:04:16.647Z,996.30
2022-12-31T12:05:18.434Z,996.33
2022-12-31T12:06:17.085Z,996.18
2022-12-31T12:07:17.923Z,996.25
2022-12-31T12:08:17.434Z,996.23
2022-12-31T12:09:17.570Z,996.26
2022-12-31T12:10:17.736Z,996.28
2022-12-31T12:11:17.925Z,996.34
2022-12-31T12:12:18.111Z,996.23
2022-12-31T12:13:18.510Z,996.28
2022-12-31T12:14:18.445Z,996.38
2022-12-31T12:15:18.635Z,996.30
2022-12-31T12:16:18.891Z,996.29
2022-12-31T12:17:18.998Z,996.38
2022-12-31T12:18:19.490Z,996.34
2022-12-31T12:19:19.433Z,996.47
2022-12-31T12:20:20.438Z,996.58
2022-12-31T12:21:20.439Z,996.36
2022-12-31T12:22:19.986Z,996.38
2022-12-31T12:23:20.494Z,996.51
2022-12-31T12:24:20.332Z,996.36
2022-12-31T12:25:20.546Z,996.48
2022-12-31T12:26:20.752Z,996.33
2022-12-31T12:27:21.960Z,996.58
2022-12-31T12:28:21.154Z,996.65
2022-12-31T12:29:22.938Z,996.65
2022-12-31T12:30:21.623Z,996.65